Time;durP1;ratioP1;P1;durP2;ratioP2;P2;SDS_P1;SDS_P2;PMS_P1;PMS_P2;Temp;Humidity;BMP_temperature;BMP_pressure;BME280_temperature;BME280_humidity;BME280_pressure;Samples;Min_cycle;Max_cycle;Signal;HPM_P1;HPM_P2
2022/03/19 00:01:39;;;;;;;93.33;39.97;;;;;;;-0.74;100.00;99074.22;10415086;28;20231;-51
2022/03/19 00:06:40;;;;;;;104.23;43.43;;;;;;;-0.75;100.00;99077.69;10415175;28;20220;-51
2022/03/19 00:11:40;;;;;;;97.17;45.63;;;;;;;-0.80;100.00;99074.31;10414967;28;20720;-57
2022/03/19 00:16:42;;;;;;;97.57;44.60;;;;;;;-0.84;100.00;99072.69;10413342;28;20342;-52
2022/03/19 00:21:42;;;;;;;92.13;39.13;;;;;;;-0.88;100.00;99070.22;10414560;28;20221;-52
2022/03/19 00:26:42;;;;;;;98.00;45.83;;;;;;;-0.90;100.00;99080.53;10414399;28;20276;-56
2022/03/19 00:31:43;;;;;;;96.50;43.13;;;;;;;-0.92;100.00;99069.41;10414229;28;20212;-53
2022/03/19 00:36:43;;;;;;;103.50;43.50;;;;;;;-0.93;100.00;99067.72;10414135;28;20635;-57
2022/03/19 00:41:43;;;;;;;92.33;37.93;;;;;;;-1.04;100.00;99073.06;10413615;28;20282;-55
2022/03/19 00:46:44;;;;;;;91.87;42.00;;;;;;;-1.12;100.00;99051.72;10413708;28;20203;-57
2022/03/19 00:51:44;;;;;;;96.13;44.73;;;;;;;-1.14;100.00;99059.47;10412926;28;20232;-52
2022/03/19 00:56:47;;;;;;;97.10;43.20;;;;;;;-1.04;100.00;99065.31;10413416;28;20283;-56
2022/03/19 01:01:47;;;;;;;79.97;33.97;;;;;;;-0.88;100.00;99060.75;10412729;28;20225;-52
2022/03/19 01:06:47;;;;;;;90.60;43.87;;;;;;;-0.79;100.00;99054.59;10412873;28;20189;-52
2022/03/19 01:11:48;;;;;;;87.87;40.57;;;;;;;-0.82;100.00;99060.66;10412859;28;20295;-54
2022/03/19 01:16:48;;;;;;;98.60;42.33;;;;;;;-0.78;100.00;99059.72;10411907;28;20208;-53
2022/03/19 01:21:48;;;;;;;83.47;39.50;;;;;;;-0.78;100.00;99058.84;10412369;28;20224;-53
2022/03/19 01:26:49;;;;;;;91.60;41.00;;;;;;;-0.74;100.00;99053.63;10412368;28;20548;-53
2022/03/19 01:31:49;;;;;;;87.90;41.80;;;;;;;-0.69;100.00;99047.56;10412354;28;20674;-54
2022/03/19 01:36:49;;;;;;;94.30;41.63;;;;;;;-0.66;100.00;99047.50;10411997;28;20715;-52
2022/03/19 01:41:50;;;;;;;93.67;38.87;;;;;;;-0.64;100.00;99044.03;10411355;28;20224;-54
2022/03/19 01:47:07;;;;;;;79.00;35.53;;;;;;;-0.69;100.00;99039.84;10411736;28;20246;-52
2022/03/19 01:52:08;;;;;;;86.03;39.63;;;;;;;-0.68;100.00;99037.22;10411109;28;20609;-52
2022/03/19 01:57:11;;;;;;;92.30;40.07;;;;;;;-0.61;100.00;99025.94;10411199;28;20278;-53
2022/03/19 02:02:11;;;;;;;80.30;38.10;;;;;;;-0.61;100.00;99023.38;10392607;28;20220;-52
2022/03/19 02:07:12;;;;;;;85.50;40.50;;;;;;;-0.57;100.00;99029.31;10410988;28;20188;-52
2022/03/19 02:12:14;;;;;;;92.37;40.90;;;;;;;-0.52;100.00;99021.50;10407191;28;20200;-53
2022/03/19 02:17:14;;;;;;;82.60;38.23;;;;;;;-0.54;100.00;99018.94;10410399;28;20663;-52
2022/03/19 02:22:16;;;;;;;79.77;39.53;;;;;;;-0.67;100.00;99017.47;10410341;28;20228;-55
2022/03/19 02:27:16;;;;;;;88.93;40.57;;;;;;;-0.80;100.00;99017.72;10411029;28;20559;-52
2022/03/19 02:32:17;;;;;;;79.57;36.93;;;;;;;-0.76;100.00;99016.78;10410237;28;20311;-52
2022/03/19 02:37:17;;;;;;;79.47;37.70;;;;;;;-0.69;100.00;99016.66;10410765;28;20254;-52
2022/03/19 02:42:19;;;;;;;89.33;38.33;;;;;;;-0.70;100.00;99014.97;10417315;28;20315;-53
2022/03/19 02:47:20;;;;;;;77.03;38.13;;;;;;;-0.65;100.00;99013.16;10418225;28;20284;-52
2022/03/19 02:52:20;;;;;;;75.37;35.17;;;;;;;-0.65;100.00;99008.03;10418099;28;20232;-51
2022/03/19 02:57:21;;;;;;;78.73;36.90;;;;;;;-0.63;100.00;99007.13;10417664;28;20220;-53
2022/03/19 03:02:21;;;;;;;85.03;40.10;;;;;;;-0.56;100.00;99006.09;10417751;28;20239;-52
2022/03/19 03:07:21;;;;;;;81.00;37.67;;;;;;;-0.51;100.00;99002.59;10417469;28;20283;-54
2022/03/19 03:12:22;;;;;;;81.13;40.30;;;;;;;-0.50;100.00;99012.88;10417250;28;20215;-54
2022/03/19 03:17:23;;;;;;;75.73;37.70;;;;;;;-0.32;100.00;99009.06;10416851;28;20193;-53
2022/03/19 03:22:25;;;;;;;81.67;37.73;;;;;;;-0.22;100.00;99014.88;10416443;28;20807;-55
2022/03/19 03:27:26;;;;;;;77.23;38.33;;;;;;;-0.33;100.00;99011.69;10399473;28;20191;-52
2022/03/19 03:32:28;;;;;;;82.00;37.93;;;;;;;-0.36;100.00;98997.13;10416155;28;20779;-54
2022/03/19 03:37:28;;;;;;;76.93;36.83;;;;;;;-0.12;100.00;98985.47;10416590;28;20281;-52
2022/03/19 03:42:29;;;;;;;77.43;40.30;;;;;;;-0.47;100.00;98981.06;10416106;28;20683;-52
2022/03/19 03:47:29;;;;;;;76.43;35.97;;;;;;;-0.44;100.00;98994.72;10415816;28;20699;-52
2022/03/19 03:52:30;;;;;;;77.40;36.73;;;;;;;-0.38;100.00;99002.31;10414367;28;20612;-52
2022/03/19 03:57:30;;;;;;;77.63;38.83;;;;;;;-0.12;100.00;98982.88;10415549;28;20790;-52
2022/03/19 04:02:30;;;;;;;74.17;37.43;;;;;;;-0.12;100.00;98984.59;10416530;28;20225;-52
2022/03/19 04:07:31;;;;;;;77.70;36.60;;;;;;;-0.25;100.00;98971.16;10456472;28;20210;-57
2022/03/19 04:12:31;;;;;;;80.13;35.60;;;;;;;-0.26;100.00;98964.28;10456146;28;20294;-53
2022/03/19 04:17:32;;;;;;;74.27;37.13;;;;;;;-0.47;100.00;98955.31;10457123;28;20196;-55
2022/03/19 04:22:34;;;;;;;86.93;38.07;;;;;;;-0.43;100.00;98941.47;10455704;28;20224;-55
2022/03/19 04:27:35;;;;;;;76.97;34.83;;;;;;;-0.23;100.00;98941.03;10456463;28;20196;-60
2022/03/19 04:32:43;;;;;;;73.10;33.30;;;;;;;-0.36;100.00;98940.47;10455163;28;20622;-60
2022/03/19 04:37:43;;;;;;;69.20;33.93;;;;;;;-0.52;100.00;98928.81;10455291;28;20689;-59
2022/03/19 04:42:44;;;;;;;87.23;37.57;;;;;;;-0.37;100.00;98933.63;10454901;28;20319;-59
2022/03/19 04:47:44;;;;;;;81.90;34.90;;;;;;;-0.20;100.00;98957.31;10452886;28;20184;-60
2022/03/19 04:52:45;;;;;;;69.80;31.93;;;;;;;-0.23;100.00;98965.09;10452750;28;20231;-57
2022/03/19 04:57:46;;;;;;;72.10;33.67;;;;;;;-0.12;100.00;98964.84;10454328;28;20194;-55
2022/03/19 05:02:47;;;;;;;71.53;34.53;;;;;;;-0.03;100.00;98951.78;10453888;28;20628;-60
2022/03/19 05:07:47;;;;;;;78.60;35.10;;;;;;;0.07;100.00;98944.66;10454164;28;20187;-60
2022/03/19 05:12:48;;;;;;;77.27;33.50;;;;;;;0.35;100.00;98926.81;10453697;28;20693;-57
2022/03/19 05:17:48;;;;;;;69.83;32.17;;;;;;;0.62;100.00;98936.47;10453513;28;20665;-60
2022/03/19 05:22:49;;;;;;;64.93;29.67;;;;;;;0.51;100.00;98929.84;10453000;28;20309;-61
2022/03/19 05:27:49;;;;;;;51.53;25.53;;;;;;;0.60;100.00;98936.50;10453722;28;20199;-60
2022/03/19 05:32:50;;;;;;;49.50;25.17;;;;;;;0.66;100.00;98943.25;10453238;28;20207;-58
2022/03/19 05:37:50;;;;;;;55.53;26.13;;;;;;;0.67;100.00;98932.03;10435374;28;20180;-60
2022/03/19 05:42:51;;;;;;;60.70;25.03;;;;;;;0.78;100.00;98929.19;10452748;28;20226;-58
2022/03/19 05:47:51;;;;;;;50.10;23.00;;;;;;;0.81;100.00;98942.00;10452561;28;20246;-59
2022/03/19 05:52:51;;;;;;;52.50;22.90;;;;;;;0.79;100.00;98943.78;10452314;28;20240;-55
2022/03/19 05:57:52;;;;;;;58.13;26.90;;;;;;;0.86;100.00;98938.41;10452455;28;20198;-58
2022/03/19 06:02:52;;;;;;;51.87;24.17;;;;;;;0.91;100.00;98940.03;10452108;28;20230;-52
2022/03/19 06:07:54;;;;;;;50.40;24.43;;;;;;;1.06;100.00;98937.88;10452429;28;20195;-58
2022/03/19 06:12:54;;;;;;;50.43;21.37;;;;;;;1.23;100.00;98945.16;10452248;28;20210;-58
2022/03/19 06:17:55;;;;;;;43.00;19.20;;;;;;;1.17;100.00;98937.56;10460554;28;20337;-59
2022/03/19 06:22:57;;;;;;;54.63;19.10;;;;;;;1.15;100.00;98935.91;10460277;28;20770;-59
2022/03/19 06:27:57;;;;;;;42.40;19.73;;;;;;;1.17;100.00;98934.16;10460477;28;20247;-55
2022/03/19 06:32:58;;;;;;;39.53;18.87;;;;;;;1.20;100.00;98937.50;10460221;28;20332;-58
2022/03/19 06:37:59;;;;;;;45.70;19.00;;;;;;;1.20;100.00;98939.25;10459908;28;20202;-54
2022/03/19 06:42:59;;;;;;;43.13;18.07;;;;;;;1.26;100.00;98933.91;10459605;28;20777;-56
2022/03/19 06:47:59;;;;;;;52.07;18.83;;;;;;;1.12;100.00;98917.94;10459762;28;20186;-57
2022/03/19 06:53:02;;;;;;;41.57;18.30;;;;;;;1.23;100.00;98914.16;10459190;28;20279;-53
2022/03/19 06:58:02;;;;;;;46.60;19.77;;;;;;;1.40;100.00;98915.44;10459323;28;20218;-55
2022/03/19 07:03:03;;;;;;;52.03;22.00;;;;;;;1.24;100.00;98915.00;10458063;28;20279;-57
2022/03/19 07:08:07;;;;;;;40.43;21.60;;;;;;;1.42;100.00;98914.50;10457236;28;20185;-57
2022/03/19 07:13:08;;;;;;;52.73;20.03;;;;;;;1.41;100.00;98915.38;10458457;28;20553;-59
2022/03/19 07:18:08;;;;;;;41.13;19.87;;;;;;;1.53;100.00;98915.91;10458002;28;20199;-52
2022/03/19 07:23:08;;;;;;;39.43;19.37;;;;;;;1.56;100.00;98902.88;10457748;28;20228;-56
2022/03/19 07:28:18;;;;;;;47.60;18.27;;;;;;;1.58;100.00;98909.72;10457571;28;20207;-52
2022/03/19 07:33:19;;;;;;;44.70;19.03;;;;;;;1.46;100.00;98902.34;10457736;28;20710;-56
2022/03/19 07:38:19;;;;;;;46.67;19.63;;;;;;;1.55;100.00;98908.97;10457560;28;20195;-56
2022/03/19 07:43:19;;;;;;;45.13;18.47;;;;;;;1.47;100.00;98916.94;10457356;28;20721;-55
2022/03/19 07:48:21;;;;;;;44.53;18.53;;;;;;;1.48;100.00;98917.78;10456361;28;20672;-55
2022/03/19 07:53:21;;;;;;;49.27;19.73;;;;;;;1.57;100.00;98925.25;10456033;28;20240;-51
2022/03/19 07:58:22;;;;;;;55.57;21.47;;;;;;;1.27;100.00;98929.56;10456836;28;20303;-53
2022/03/19 08:03:23;;;;;;;65.03;26.73;;;;;;;1.23;100.00;98918.50;10440118;28;20240;-58
2022/03/19 08:08:24;;;;;;;61.53;27.23;;;;;;;1.25;100.00;98919.28;10427691;28;20253;-52
2022/03/19 08:13:24;;;;;;;68.33;28.73;;;;;;;1.25;100.00;98911.53;10450992;28;20185;-57
2022/03/19 08:18:25;;;;;;;70.33;29.93;;;;;;;1.05;100.00;98905.19;10449045;28;20214;-54
2022/03/19 08:23:25;;;;;;;81.13;34.47;;;;;;;1.04;100.00;98897.50;10449151;28;20214;-54
2022/03/19 08:28:26;;;;;;;72.97;31.17;;;;;;;1.09;100.00;98897.38;10449087;28;20738;-54
2022/03/19 08:33:26;;;;;;;67.00;29.43;;;;;;;1.17;100.00;98882.53;10448960;28;20639;-55
2022/03/19 08:43:45;;;;;;;69.67;30.30;;;;;;;1.28;100.00;98877.88;10449827;28;20226;-55
2022/03/19 08:48:46;;;;;;;71.17;28.33;;;;;;;1.23;100.00;98872.84;10449138;28;20235;-53
2022/03/19 08:53:46;;;;;;;72.80;27.67;;;;;;;1.34;100.00;98877.72;10449881;28;20192;-54
2022/03/19 08:58:46;;;;;;;61.93;26.00;;;;;;;1.44;100.00;98880.88;10436854;28;20223;-56
2022/03/19 09:03:47;;;;;;;58.90;24.53;;;;;;;1.45;100.00;98877.38;10441626;28;20752;-54
2022/03/19 09:08:49;;;;;;;57.93;25.23;;;;;;;1.46;100.00;98880.84;10449094;28;20223;-52
2022/03/19 09:13:50;;;;;;;52.63;25.10;;;;;;;1.57;100.00;98883.94;10447526;28;20195;-55
2022/03/19 09:18:51;;;;;;;54.70;24.97;;;;;;;1.87;100.00;98870.94;10448234;28;20860;-56
2022/03/19 09:23:51;;;;;;;59.63;22.97;;;;;;;1.96;100.00;98868.06;10447438;28;20216;-53
2022/03/19 09:28:52;;;;;;;46.47;23.20;;;;;;;2.19;100.00;98864.75;10443985;28;20211;-60
2022/03/19 09:33:52;;;;;;;46.03;21.57;;;;;;;2.60;100.00;98862.47;10447771;28;20314;-52
2022/03/19 09:38:53;;;;;;;43.17;20.60;;;;;;;2.83;100.00;98864.28;10447537;28;20212;-57
2022/03/19 09:43:56;;;;;;;38.73;18.17;;;;;;;3.00;100.00;98844.69;10445857;28;20314;-52
2022/03/19 09:48:57;;;;;;;39.57;18.03;;;;;;;2.87;100.00;98857.25;10446922;28;20285;-52
2022/03/19 09:53:57;;;;;;;39.30;18.33;;;;;;;2.59;100.00;98853.03;10443252;22;20298;-55
2022/03/19 09:58:58;;;;;;;34.97;17.50;;;;;;;2.85;100.00;98854.72;10407546;28;20192;-61
2022/03/19 10:04:03;;;;;;;31.73;14.97;;;;;;;2.33;100.00;98856.53;10404537;28;20577;-57
2022/03/19 10:09:03;;;;;;;26.83;13.37;;;;;;;2.16;100.00;98853.66;10406349;28;20684;-60
2022/03/19 10:14:08;;;;;;;27.63;14.03;;;;;;;1.83;100.00;98853.84;10406293;28;20245;-59
2022/03/19 10:19:08;;;;;;;33.23;16.00;;;;;;;1.78;100.00;98854.84;10404124;28;20199;-58
2022/03/19 10:24:20;;;;;;;29.93;13.90;;;;;;;1.86;100.00;98848.59;10405950;28;20239;-59
2022/03/19 10:29:29;;;;;;;27.13;14.07;;;;;;;1.82;100.00;98837.50;10405769;28;20282;-56
2022/03/19 10:34:30;;;;;;;32.40;16.80;;;;;;;2.17;100.00;98842.41;10405720;28;20212;-54
2022/03/19 10:39:31;;;;;;;32.10;16.27;;;;;;;2.20;100.00;98840.56;10405130;28;20603;-55
2022/03/19 10:44:32;;;;;;;43.50;18.90;;;;;;;2.52;100.00;98836.03;10405513;28;20232;-57
2022/03/19 10:49:32;;;;;;;23.00;13.77;;;;;;;3.11;100.00;98829.63;10388934;28;20674;-57
2022/03/19 10:54:34;;;;;;;45.00;23.07;;;;;;;3.53;100.00;98817.66;10403884;28;20269;-55
2022/03/19 10:59:34;;;;;;;24.10;12.17;;;;;;;3.93;100.00;98811.69;10406897;28;20189;-58
2022/03/19 11:04:35;;;;;;;34.87;16.87;;;;;;;3.93;100.00;98797.91;10411923;28;20227;-57
2022/03/19 11:09:38;;;;;;;20.07;10.70;;;;;;;4.19;100.00;98776.06;10412080;28;20189;-57
2022/03/19 11:14:40;;;;;;;17.37;9.83;;;;;;;5.49;100.00;98749.44;10414407;28;20201;-63
2022/03/19 11:19:40;;;;;;;19.37;9.90;;;;;;;6.38;96.26;98718.16;10409334;28;20185;-59
2022/03/19 11:24:52;;;;;;;19.97;10.20;;;;;;;6.27;89.91;98677.06;10409719;28;20768;-60
2022/03/19 11:29:53;;;;;;;19.53;10.67;;;;;;;6.53;83.59;98630.56;10392525;28;20193;-56
2022/03/19 11:34:57;;;;;;;18.33;9.43;;;;;;;6.65;84.57;98650.75;10411790;28;20197;-58
2022/03/19 11:40:06;;;;;;;19.20;11.33;;;;;;;7.05;85.36;98685.00;10410964;28;20199;-61
2022/03/19 11:45:10;;;;;;;17.83;11.13;;;;;;;7.64;82.15;98637.34;10393562;28;20311;-58
2022/03/19 11:50:20;;;;;;;22.20;12.50;;;;;;;7.45;73.45;98517.63;10410657;28;20188;-59
2022/03/19 11:55:29;;;;;;;24.07;13.70;;;;;;;6.79;72.38;98512.75;10414889;28;20264;-56
2022/03/19 12:00:31;;;;;;;20.70;13.53;;;;;;;8.01;69.59;98468.13;10415046;28;20203;-59
2022/03/19 12:05:33;;;;;;;25.47;13.40;;;;;;;8.75;64.97;98406.72;10414250;28;20216;-57
2022/03/19 12:10:41;;;;;;;24.40;15.07;;;;;;;6.94;66.46;98432.03;10413925;28;20184;-55
2022/03/19 12:15:41;;;;;;;28.27;14.37;;;;;;;7.11;68.57;98488.38;10397328;28;20201;-59
2022/03/19 12:20:42;;;;;;;22.70;14.93;;;;;;;6.67;68.82;98470.97;10414001;28;20679;-54
2022/03/19 12:25:48;;;;;;;29.37;15.30;;;;;;;6.87;68.48;98462.81;10413882;28;20220;-54
2022/03/19 12:30:49;;;;;;;23.27;14.80;;;;;;;6.90;67.67;98448.78;10396837;28;20189;-54
2022/03/19 12:35:49;;;;;;;25.73;14.70;;;;;;;7.44;63.37;98373.41;10394524;28;20185;-57
2022/03/19 12:46:10;;;;;;;26.97;15.47;;;;;;;8.17;60.56;98329.63;10411534;28;20224;-61
2022/03/19 12:51:10;;;;;;;24.43;16.03;;;;;;;8.11;62.32;98387.47;10412921;28;20204;-61
2022/03/19 12:56:19;;;;;;;29.47;16.23;;;;;;;8.82;58.34;98297.44;10413405;28;20250;-60
2022/03/19 13:01:22;;;;;;;25.10;16.17;;;;;;;9.09;55.97;98250.19;10412392;28;20289;-61
2022/03/19 13:06:41;;;;;;;25.87;15.13;;;;;;;10.10;52.65;98193.16;10412584;28;20303;-58
2022/03/19 13:11:43;;;;;;;28.23;15.60;;;;;;;10.50;51.70;98211.91;10411937;28;20224;-61
2022/03/19 13:16:48;;;;;;;24.37;14.60;;;;;;;10.49;51.40;98191.06;10401693;28;20613;-59
2022/03/19 13:21:52;;;;;;;23.80;14.38;;;;;;;10.58;48.65;98127.50;10370733;28;20234;-59
2022/03/19 13:26:54;;;;;;;23.60;14.20;;;;;;;10.21;49.32;98132.09;10371871;28;20220;-60
2022/03/19 13:31:56;;;;;;;20.73;13.68;;;;;;;10.56;45.74;98053.38;10370912;28;20707;-60
2022/03/19 13:37:05;;;;;;;25.88;12.60;;;;;;;11.88;42.85;98002.22;10370371;28;20191;-61
2022/03/19 13:42:10;;;;;;;23.67;13.68;;;;;;;11.60;39.31;97896.16;10370954;28;20683;-60
2022/03/19 13:47:19;;;;;;;22.80;13.65;;;;;;;11.91;39.18;97925.81;10370572;28;20197;-57
2022/03/19 13:52:45;;;;;;;21.92;13.65;;;;;;;11.58;37.96;97871.84;10370227;28;20234;-61
2022/03/19 13:57:47;;;;;;;21.42;13.55;;;;;;;11.82;35.22;97805.81;10370037;28;20185;-58
2022/03/19 14:03:06;;;;;;;21.10;12.70;;;;;;;11.67;35.99;97823.78;10370041;28;20762;-61
2022/03/19 14:08:10;;;;;;;24.80;13.30;;;;;;;11.74;37.10;97887.88;10369821;28;20737;-58
2022/03/19 14:13:16;;;;;;;18.20;12.05;;;;;;;11.99;37.50;97926.94;10372124;28;20201;-61
2022/03/19 14:18:28;;;;;;;22.35;12.57;;;;;;;11.52;36.15;97856.63;10409685;28;20204;-61
2022/03/19 14:23:32;;;;;;;19.95;12.27;;;;;;;11.42;36.11;97859.19;10410338;28;20331;-60
2022/03/19 14:28:33;;;;;;;17.70;10.70;;;;;;;11.78;36.58;97881.41;10410618;28;20189;-57
2022/03/19 14:33:33;;;;;;;29.70;12.27;;;;;;;11.18;37.13;97901.50;10410097;28;20216;-60
2022/03/19 14:38:38;;;;;;;20.98;12.13;;;;;;;12.16;34.38;97836.13;10418364;28;20204;-59
2022/03/19 14:43:41;;;;;;;21.60;13.10;;;;;;;11.14;34.71;97816.19;10417878;28;20228;-61
2022/03/19 14:48:45;;;;;;;23.05;13.05;;;;;;;11.42;34.56;97825.94;10417942;28;20568;-57
2022/03/19 14:53:46;;;;;;;21.00;12.25;;;;;;;11.92;35.09;97880.22;10417494;28;20758;-56
2022/03/19 14:58:47;;;;;;;22.10;12.13;;;;;;;11.63;33.82;97809.25;10417506;28;20287;-58
2022/03/19 15:03:48;;;;;;;20.13;13.05;;;;;;;11.23;35.40;97855.56;10417214;28;20319;-57
2022/03/19 15:08:49;;;;;;;21.77;12.17;;;;;;;9.80;37.70;97877.84;10417049;28;20927;-55
2022/03/19 15:13:50;;;;;;;16.13;10.80;;;;;;;9.87;37.97;97905.19;10416959;28;20223;-56
2022/03/19 15:18:55;;;;;;;16.60;10.80;;;;;;;11.59;36.20;97916.31;10416360;28;20196;-55
2022/03/19 15:23:55;;;;;;;18.15;11.25;;;;;;;13.02;32.21;97810.63;10416566;28;20235;-55
2022/03/19 15:28:56;;;;;;;21.73;12.10;;;;;;;12.43;32.64;97803.88;10416606;28;20662;-59
2022/03/19 15:33:56;;;;;;;18.30;11.85;;;;;;;12.41;34.64;97853.16;10416284;28;20694;-57
2022/03/19 15:38:56;;;;;;;22.15;12.07;;;;;;;13.37;32.58;97832.81;10416215;28;20192;-56
2022/03/19 15:43:57;;;;;;;16.50;11.77;;;;;;;12.99;32.63;97831.97;10415588;28;20243;-58
2022/03/19 15:48:57;;;;;;;19.45;11.63;;;;;;;12.38;33.16;97837.66;10415538;28;20277;-55
2022/03/19 15:53:58;;;;;;;19.88;12.00;;;;;;;12.52;34.16;97873.19;10415309;28;20282;-58
2022/03/19 15:58:59;;;;;;;18.38;11.10;;;;;;;11.90;34.51;97853.25;10415354;28;20192;-55
2022/03/19 16:03:59;;;;;;;21.05;11.45;;;;;;;10.48;34.91;97826.06;10415659;28;20263;-55
2022/03/19 16:09:00;;;;;;;15.50;10.02;;;;;;;11.36;33.99;97820.38;10415219;28;20212;-55
2022/03/19 16:14:00;;;;;;;17.27;10.23;;;;;;;9.15;36.15;97816.75;10448624;23;20716;-54
2022/03/19 16:19:03;;;;;;;18.77;10.60;;;;;;;8.18;38.44;97877.09;10455727;28;20593;-59
2022/03/19 16:24:04;;;;;;;17.70;10.37;;;;;;;6.68;41.31;97918.78;10455669;28;20251;-58
2022/03/19 16:29:05;;;;;;;17.20;9.40;;;;;;;6.31;41.45;97944.63;10456008;28;20219;-57
2022/03/19 16:34:06;;;;;;;19.17;10.83;;;;;;;5.93;42.56;97955.69;10455175;28;20215;-56
2022/03/19 16:39:06;;;;;;;18.03;9.80;;;;;;;5.65;42.42;97961.75;10458897;28;20195;-55
2022/03/19 16:44:06;;;;;;;17.97;10.17;;;;;;;5.12;43.54;97970.13;10454872;28;20310;-51
2022/03/19 16:49:07;;;;;;;28.33;16.50;;;;;;;5.18;45.12;98033.88;10454914;28;20188;-51
2022/03/19 16:54:07;;;;;;;36.57;19.03;;;;;;;5.12;44.97;98029.84;10454761;28;20212;-51
2022/03/19 16:59:08;;;;;;;23.33;13.20;;;;;;;4.79;46.96;98092.34;10453858;28;20597;-52
2022/03/19 17:04:09;;;;;;;22.93;11.97;;;;;;;4.57;46.28;98067.59;10453326;28;20718;-52
2022/03/19 17:09:09;;;;;;;21.83;12.80;;;;;;;4.32;46.65;98085.44;10451129;28;20282;-51
2022/03/19 17:14:11;;;;;;;25.00;11.73;;;;;;;4.14;47.37;98105.44;10451054;28;20277;-52
2022/03/19 17:19:11;;;;;;;22.97;11.50;;;;;;;3.98;47.27;98101.06;10452135;28;20257;-52
2022/03/19 17:24:12;;;;;;;23.03;11.30;;;;;;;3.95;47.13;98108.16;10453384;28;20247;-52
2022/03/19 17:29:12;;;;;;;21.93;11.10;;;;;;;3.73;48.30;98128.22;10454032;28;20219;-54
2022/03/19 17:34:12;;;;;;;21.00;11.47;;;;;;;3.56;48.06;98115.31;10452841;28;20243;-51
2022/03/19 17:39:13;;;;;;;21.87;11.20;;;;;;;3.36;48.76;98137.03;10453188;28;20188;-52
2022/03/19 17:44:14;;;;;;;22.23;12.43;;;;;;;3.20;49.20;98150.75;10452036;28;20253;-51
2022/03/19 17:49:15;;;;;;;22.07;11.53;;;;;;;3.24;49.11;98156.59;10451086;28;20725;-51
2022/03/19 17:54:16;;;;;;;28.13;12.73;;;;;;;2.81;50.65;98194.91;10452558;28;20574;-58
2022/03/19 17:59:16;;;;;;;20.13;10.70;;;;;;;2.90;50.20;98184.13;10452488;28;20270;-59
2022/03/19 18:04:17;;;;;;;31.77;13.77;;;;;;;2.67;52.33;98249.88;10452169;28;20227;-57
2022/03/19 18:09:18;;;;;;;23.90;12.77;;;;;;;2.08;54.42;98275.69;10451147;28;20234;-58
2022/03/19 18:14:18;;;;;;;23.73;12.40;;;;;;;1.72;56.98;98348.63;10451790;28;20236;-58
2022/03/19 18:19:18;;;;;;;20.70;11.20;;;;;;;1.14;61.03;98428.31;10451548;28;20203;-57
2022/03/19 18:24:19;;;;;;;22.63;10.67;;;;;;;1.00;61.11;98437.38;10451736;28;20242;-54
2022/03/19 18:29:20;;;;;;;17.93;10.30;;;;;;;0.55;64.14;98481.91;10451798;28;20195;-54
2022/03/19 18:34:20;;;;;;;26.70;12.60;;;;;;;0.33;65.83;98518.69;10451066;28;20211;-56
2022/03/19 18:39:21;;;;;;;22.80;11.70;;;;;;;0.09;67.00;98527.16;10450233;28;20688;-56
2022/03/19 18:44:21;;;;;;;20.83;11.37;;;;;;;-0.06;68.02;98531.03;10449936;28;20682;-55
2022/03/19 18:49:22;;;;;;;47.47;22.67;;;;;;;-0.43;68.66;98543.25;10448192;28;20600;-55
2022/03/19 18:54:22;;;;;;;30.57;15.10;;;;;;;-0.34;69.55;98544.72;10450677;28;20204;-55
2022/03/19 18:59:23;;;;;;;29.90;15.07;;;;;;;-0.46;69.37;98538.19;10450486;28;20192;-54
2022/03/19 19:04:23;;;;;;;38.50;18.33;;;;;;;-0.76;71.25;98566.44;10450565;28;20231;-59
2022/03/19 19:09:23;;;;;;;31.97;16.93;;;;;;;-0.84;72.77;98593.25;10449482;28;20188;-59
2022/03/19 19:14:24;;;;;;;135.47;58.03;;;;;;;-0.89;73.25;98588.22;10447584;28;20321;-58
2022/03/19 19:19:24;;;;;;;38.40;19.27;;;;;;;-1.04;74.01;98592.03;10449991;28;20549;-57
2022/03/19 19:24:25;;;;;;;31.37;16.13;;;;;;;-1.14;74.46;98593.97;10455035;28;20231;-55
2022/03/19 19:29:25;;;;;;;32.73;16.93;;;;;;;-1.10;73.92;98584.47;10453954;28;20184;-57
2022/03/19 19:34:26;;;;;;;30.57;16.57;;;;;;;-1.24;75.16;98582.22;10454910;28;20227;-58
2022/03/19 19:39:27;;;;;;;28.37;14.97;;;;;;;-1.21;74.42;98564.16;10451910;28;20693;-56
2022/03/19 19:44:29;;;;;;;31.13;16.60;;;;;;;-1.38;76.16;98579.13;10453710;28;20234;-55
2022/03/19 19:49:31;;;;;;;40.70;21.93;;;;;;;-1.73;77.72;98593.63;10456273;28;20753;-56
2022/03/19 19:54:39;;;;;;;30.03;16.00;;;;;;;-1.63;76.73;98562.53;10457028;28;20232;-55
2022/03/19 19:59:41;;;;;;;30.33;15.50;;;;;;;-1.59;76.80;98559.91;10454766;28;20188;-55
2022/03/19 20:04:41;;;;;;;31.53;16.40;;;;;;;-1.69;78.29;98582.41;10454152;28;20599;-58
2022/03/19 20:09:41;;;;;;;32.37;17.73;;;;;;;-1.87;79.71;98599.91;10454336;28;20202;-51
2022/03/19 20:14:42;;;;;;;34.67;17.40;;;;;;;-1.96;80.32;98618.09;10455216;28;20235;-55
2022/03/19 20:19:42;;;;;;;36.97;17.03;;;;;;;-1.97;81.01;98606.94;10455051;28;20286;-54
2022/03/19 20:24:43;;;;;;;31.90;17.57;;;;;;;-2.25;82.60;98598.97;10455326;28;20224;-56
2022/03/19 20:29:43;;;;;;;29.60;16.40;;;;;;;-2.21;81.72;98581.78;10454874;28;20332;-53
2022/03/19 20:34:44;;;;;;;30.37;14.03;;;;;;;-2.08;80.29;98547.28;10453302;28;20747;-56
2022/03/19 20:39:45;;;;;;;30.57;15.80;;;;;;;-2.10;80.31;98540.47;10453414;28;20184;-51
2022/03/19 20:44:46;;;;;;;30.27;15.67;;;;;;;-2.08;80.52;98538.72;10454550;28;20631;-56
2022/03/19 20:55:05;;;;;;;32.77;14.97;;;;;;;-2.32;81.80;98551.19;10454295;28;20211;-58
2022/03/19 21:00:08;;;;;;;30.47;15.60;;;;;;;-2.53;82.59;98549.88;10453275;28;20188;-53
2022/03/19 21:05:17;;;;;;;34.80;15.80;;;;;;;-2.46;83.05;98555.78;10452170;28;20243;-54
2022/03/19 21:10:20;;;;;;;28.77;15.30;;;;;;;-2.62;83.70;98550.94;10453462;28;20223;-55
2022/03/19 21:15:21;;;;;;;26.90;12.60;;;;;;;-1.79;76.35;98427.63;10453596;28;20290;-54
2022/03/19 21:20:24;;;;;;;27.40;12.90;;;;;;;-1.26;72.56;98360.28;10454025;28;20199;-51
2022/03/19 21:25:25;;;;;;;22.07;12.73;;;;;;;-1.06;71.71;98351.19;10453764;28;20228;-52
2022/03/19 21:30:25;;;;;;;25.60;13.90;;;;;;;-1.38;74.02;98422.31;10453598;28;20195;-52
2022/03/19 21:35:27;;;;;;;24.97;11.97;;;;;;;-1.32;71.84;98370.75;10453521;28;20215;-52
2022/03/19 21:45:51;;;;;;;22.77;11.83;;;;;;;-0.61;65.75;98243.47;10452997;28;20218;-51
2022/03/19 21:50:52;;;;;;;22.17;12.37;;;;;;;-0.26;64.06;98207.16;10452828;28;20325;-51
2022/03/19 21:55:53;;;;;;;31.23;10.47;;;;;;;-0.47;64.58;98244.78;10453011;28;20295;-52
2022/03/19 22:00:53;;;;;;;22.47;11.97;;;;;;;-0.57;65.25;98264.78;10452688;28;20184;-52
2022/03/19 22:05:54;;;;;;;24.30;12.13;;;;;;;-0.84;66.87;98287.94;10452082;28;20227;-51
2022/03/19 22:10:55;;;;;;;24.70;11.67;;;;;;;-0.88;66.17;98264.94;10452745;28;20201;-52
2022/03/19 22:15:55;;;;;;;23.53;11.63;;;;;;;-0.93;64.82;98245.31;10452531;28;20244;-53
2022/03/19 22:20:59;;;;;;;24.03;12.00;;;;;;;-1.01;65.98;98267.88;10452964;28;20188;-51
2022/03/19 22:26:00;;;;;;;21.17;10.33;;;;;;;-0.97;64.87;98248.03;10452535;28;20253;-55
2022/03/19 22:31:04;;;;;;;17.63;8.57;;;;;;;0.01;59.62;98109.22;10452510;28;20240;-53
2022/03/19 22:36:04;;;;;;;21.30;9.70;;;;;;;0.62;56.49;98065.63;10452660;28;20710;-54
2022/03/19 22:41:05;;;;;;;20.10;8.63;;;;;;;0.58;55.37;98033.09;10452431;28;20206;-57
2022/03/19 22:46:05;;;;;;;18.30;9.07;;;;;;;1.10;53.33;97996.56;10452311;28;20230;-56
2022/03/19 22:51:06;;;;;;;19.83;9.00;;;;;;;1.32;51.61;97950.03;10452010;28;20292;-56
2022/03/19 22:56:07;;;;;;;17.73;8.53;;;;;;;1.69;49.36;97916.53;10454197;28;20709;-55
2022/03/19 23:01:08;;;;;;;14.07;8.40;;;;;;;2.12;47.73;97881.72;10460076;28;20275;-50
2022/03/19 23:06:08;;;;;;;20.53;8.73;;;;;;;1.68;49.71;97940.69;10459449;28;20219;-52
2022/03/19 23:11:28;;;;;;;15.53;6.67;;;;;;;2.29;46.27;97859.38;10459648;28;20252;-50